ICE38R BIKF-BIAR
Flight info
| Callsign | ICE38R |
|---|---|
| Flight time | 0h 37m |
| Altitude | 23000 |
| Route | LUTER2B LUTER DCT ASKUR DCT BOTOQ DCT PEXIL PEXIL1M |
| Aircraft | A21N/M-SDE2E3FGHIRWXY/LB1 |
Departure
| Time | 2026-04-26 11:27 |
|---|---|
| Airport | Keflavik International Airport (BIKF) |
Arrival
| Time | 2026-04-26 12:04 |
|---|---|
| Airport | Akureyri International Airport (BIAR) |
| Time | Latitude | Longitude | Altitude | Speed | Heading |
|---|---|---|---|---|---|
| 2026-04-26 10:41 | 63.99402 | -22.61716 | 146 ft | 0 kts | 180° |
| 2026-04-26 11:13 | 63.99403 | -22.61716 | 168 ft | 2 kts | 180° |
| 2026-04-26 11:13 | 63.99429 | -22.61717 | 141 ft | 4 kts | 180° |
| 2026-04-26 11:14 | 63.99451 | -22.61717 | 133 ft | 4 kts | 172° |
| 2026-04-26 11:14 | 63.99468 | -22.61739 | 151 ft | 4 kts | 106° |
| 2026-04-26 11:14 | 63.99470 | -22.61795 | 147 ft | 4 kts | 90° |
| 2026-04-26 11:14 | 63.99470 | -22.61821 | 147 ft | 0 kts | 90° |
| 2026-04-26 11:17 | 63.99470 | -22.61807 | 147 ft | 3 kts | 90° |
| 2026-04-26 11:17 | 63.99462 | -22.61757 | 155 ft | 4 kts | 125° |
| 2026-04-26 11:17 | 63.99454 | -22.61685 | 150 ft | 6 kts | 69° |
| 2026-04-26 11:17 | 63.99466 | -22.61686 | 150 ft | 2 kts | 318° |
| 2026-04-26 11:18 | 63.99467 | -22.61702 | 152 ft | 0 kts | 267° |
| 2026-04-26 11:19 | 63.99467 | -22.61719 | 154 ft | 3 kts | 269° |
| 2026-04-26 11:19 | 63.99468 | -22.61794 | 147 ft | 6 kts | 272° |
| 2026-04-26 11:19 | 63.99470 | -22.61900 | 147 ft | 7 kts | 271° |
| 2026-04-26 11:20 | 63.99462 | -22.62026 | 147 ft | 9 kts | 226° |
| 2026-04-26 11:20 | 63.99421 | -22.62018 | 147 ft | 10 kts | 153° |
| 2026-04-26 11:20 | 63.99321 | -22.61986 | 147 ft | 12 kts | 180° |
| 2026-04-26 11:20 | 63.99232 | -22.61985 | 147 ft | 13 kts | 179° |
| 2026-04-26 11:21 | 63.99177 | -22.62058 | 147 ft | 10 kts | 263° |
| 2026-04-26 11:21 | 63.99175 | -22.62230 | 147 ft | 12 kts | 263° |
| 2026-04-26 11:21 | 63.99171 | -22.62426 | 147 ft | 13 kts | 269° |
| 2026-04-26 11:21 | 63.99170 | -22.62642 | 147 ft | 12 kts | 254° |
| 2026-04-26 11:22 | 63.99101 | -22.62728 | 146 ft | 12 kts | 195° |
| 2026-04-26 11:22 | 63.99015 | -22.62786 | 145 ft | 13 kts | 197° |
| 2026-04-26 11:22 | 63.98922 | -22.62849 | 143 ft | 14 kts | 197° |
| 2026-04-26 11:22 | 63.98853 | -22.62994 | 141 ft | 15 kts | 268° |
| 2026-04-26 11:23 | 63.98854 | -22.63252 | 139 ft | 18 kts | 270° |
| 2026-04-26 11:23 | 63.98854 | -22.63568 | 134 ft | 22 kts | 270° |
| 2026-04-26 11:23 | 63.98853 | -22.63927 | 131 ft | 23 kts | 270° |
| 2026-04-26 11:23 | 63.98853 | -22.64304 | 129 ft | 24 kts | 270° |
| 2026-04-26 11:24 | 63.98853 | -22.64693 | 123 ft | 25 kts | 270° |
| 2026-04-26 11:24 | 63.98852 | -22.65094 | 115 ft | 26 kts | 270° |
| 2026-04-26 11:24 | 63.98846 | -22.65415 | 120 ft | 15 kts | 239° |
| 2026-04-26 11:24 | 63.98784 | -22.65461 | 120 ft | 8 kts | 180° |
| 2026-04-26 11:25 | 63.98722 | -22.65461 | 121 ft | 10 kts | 180° |
| 2026-04-26 11:25 | 63.98650 | -22.65461 | 119 ft | 11 kts | 180° |
| 2026-04-26 11:25 | 63.98569 | -22.65465 | 120 ft | 12 kts | 182° |
| 2026-04-26 11:25 | 63.98506 | -22.65418 | 123 ft | 6 kts | 107° |
| 2026-04-26 11:26 | 63.98505 | -22.65367 | 125 ft | 0 kts | 89° |
| 2026-04-26 11:26 | 63.98505 | -22.65205 | 121 ft | 39 kts | 89° |
| 2026-04-26 11:26 | 63.98505 | -22.64030 | 139 ft | 107 kts | 91° |
| 2026-04-26 11:27 | 63.98509 | -22.61879 | 224 ft | 153 kts | 88° |
| 2026-04-26 11:27 | 63.98581 | -22.59470 | 879 ft | 153 kts | 92° |
| 2026-04-26 11:27 | 63.98630 | -22.57022 | 1538 ft | 157 kts | 98° |
| 2026-04-26 11:27 | 63.98559 | -22.54456 | 2039 ft | 169 kts | 101° |
| 2026-04-26 11:28 | 63.98511 | -22.51636 | 2540 ft | 188 kts | 96° |
| 2026-04-26 11:28 | 63.98504 | -22.48534 | 2978 ft | 208 kts | 96° |
| 2026-04-26 11:28 | 63.98490 | -22.44998 | 3284 ft | 235 kts | 96° |
| 2026-04-26 11:28 | 63.98591 | -22.41130 | 3920 ft | 252 kts | 87° |
| 2026-04-26 11:29 | 63.98865 | -22.37138 | 4715 ft | 259 kts | 84° |
| 2026-04-26 11:29 | 63.99166 | -22.33053 | 5533 ft | 263 kts | 84° |
| 2026-04-26 11:29 | 63.99466 | -22.28959 | 6332 ft | 268 kts | 83° |
| 2026-04-26 11:29 | 63.99769 | -22.24731 | 7110 ft | 271 kts | 83° |
| 2026-04-26 11:30 | 64.00069 | -22.20465 | 7880 ft | 274 kts | 83° |
| 2026-04-26 11:30 | 64.00270 | -22.17606 | 8408 ft | 276 kts | 83° |
| 2026-04-26 11:30 | 64.00682 | -22.11788 | 9490 ft | 279 kts | 85° |
| 2026-04-26 11:30 | 64.00988 | -22.07380 | 10189 ft | 287 kts | 84° |
| 2026-04-26 11:31 | 64.01310 | -22.02727 | 10517 ft | 307 kts | 84° |
| 2026-04-26 11:31 | 64.01650 | -21.97757 | 10785 ft | 327 kts | 84° |
| 2026-04-26 11:31 | 64.02009 | -21.92483 | 11056 ft | 346 kts | 83° |
| 2026-04-26 11:31 | 64.02381 | -21.86981 | 11561 ft | 355 kts | 83° |
| 2026-04-26 11:32 | 64.02762 | -21.81403 | 12296 ft | 357 kts | 83° |
| 2026-04-26 11:32 | 64.03143 | -21.75792 | 13020 ft | 359 kts | 83° |
| 2026-04-26 11:32 | 64.03522 | -21.70119 | 13739 ft | 362 kts | 84° |
| 2026-04-26 11:32 | 64.03900 | -21.64434 | 14389 ft | 365 kts | 84° |
| 2026-04-26 11:33 | 64.04281 | -21.58670 | 14985 ft | 368 kts | 84° |
| 2026-04-26 11:33 | 64.04662 | -21.52865 | 15612 ft | 371 kts | 84° |
| 2026-04-26 11:33 | 64.05035 | -21.47020 | 16201 ft | 375 kts | 83° |
| 2026-04-26 11:33 | 64.05411 | -21.41089 | 16800 ft | 379 kts | 84° |
| 2026-04-26 11:34 | 64.05794 | -21.35109 | 17414 ft | 382 kts | 84° |
| 2026-04-26 11:34 | 64.06175 | -21.29056 | 18001 ft | 386 kts | 84° |
| 2026-04-26 11:34 | 64.06549 | -21.23050 | 18558 ft | 389 kts | 83° |
| 2026-04-26 11:34 | 64.06933 | -21.16898 | 19046 ft | 393 kts | 83° |
| 2026-04-26 11:35 | 64.07319 | -21.10691 | 19594 ft | 395 kts | 83° |
| 2026-04-26 11:35 | 64.07703 | -21.04462 | 20139 ft | 397 kts | 83° |
| 2026-04-26 11:35 | 64.08085 | -20.98194 | 20647 ft | 400 kts | 83° |
| 2026-04-26 11:35 | 64.08346 | -20.93919 | 21025 ft | 401 kts | 83° |
| 2026-04-26 11:36 | 64.08849 | -20.85515 | 21670 ft | 405 kts | 83° |
| 2026-04-26 11:36 | 64.09234 | -20.79110 | 22131 ft | 408 kts | 83° |
| 2026-04-26 11:36 | 64.09620 | -20.72664 | 22615 ft | 411 kts | 83° |
| 2026-04-26 11:36 | 64.10007 | -20.66162 | 22956 ft | 413 kts | 83° |
| 2026-04-26 11:37 | 64.10390 | -20.59725 | 23024 ft | 406 kts | 83° |
| 2026-04-26 11:37 | 64.10763 | -20.53322 | 23022 ft | 405 kts | 83° |
| 2026-04-26 11:37 | 64.11158 | -20.46931 | 23010 ft | 405 kts | 81° |
| 2026-04-26 11:37 | 64.11937 | -20.40748 | 22997 ft | 408 kts | 68° |
| 2026-04-26 11:38 | 64.13379 | -20.35153 | 22996 ft | 411 kts | 53° |
| 2026-04-26 11:38 | 64.15414 | -20.30549 | 22999 ft | 414 kts | 39° |
| 2026-04-26 11:38 | 64.17813 | -20.26851 | 23019 ft | 415 kts | 34° |
| 2026-04-26 11:38 | 64.20260 | -20.23313 | 23013 ft | 415 kts | 34° |
| 2026-04-26 11:39 | 64.22695 | -20.19747 | 23000 ft | 415 kts | 34° |
| 2026-04-26 11:39 | 64.25115 | -20.16158 | 22998 ft | 410 kts | 35° |
| 2026-04-26 11:39 | 64.27498 | -20.12591 | 23004 ft | 407 kts | 35° |
| 2026-04-26 11:39 | 64.29868 | -20.09038 | 23022 ft | 407 kts | 36° |
| 2026-04-26 11:40 | 64.32215 | -20.05517 | 23026 ft | 407 kts | 35° |
| 2026-04-26 11:40 | 64.34620 | -20.01915 | 23028 ft | 407 kts | 35° |
| 2026-04-26 11:40 | 64.36961 | -19.98390 | 23027 ft | 407 kts | 35° |
| 2026-04-26 11:40 | 64.39329 | -19.94811 | 23030 ft | 407 kts | 35° |
| 2026-04-26 11:41 | 64.41700 | -19.91214 | 23030 ft | 407 kts | 35° |
| 2026-04-26 11:42 | 64.58250 | -19.66127 | 23050 ft | 406 kts | 35° |
| 2026-04-26 11:43 | 64.59849 | -19.63674 | 23049 ft | 408 kts | 36° |
| 2026-04-26 11:43 | 64.62217 | -19.60029 | 23056 ft | 408 kts | 36° |
| 2026-04-26 11:43 | 64.64588 | -19.56371 | 23053 ft | 410 kts | 35° |
| 2026-04-26 11:43 | 64.66930 | -19.52749 | 23057 ft | 409 kts | 35° |
| 2026-04-26 11:44 | 64.69304 | -19.49062 | 23053 ft | 409 kts | 36° |
| 2026-04-26 11:44 | 64.71677 | -19.45378 | 23057 ft | 409 kts | 35° |
| 2026-04-26 11:44 | 64.74047 | -19.41682 | 23052 ft | 409 kts | 36° |
| 2026-04-26 11:44 | 64.76411 | -19.37987 | 23052 ft | 409 kts | 36° |
| 2026-04-26 11:45 | 64.78777 | -19.34286 | 23053 ft | 409 kts | 36° |
| 2026-04-26 11:45 | 64.81146 | -19.30577 | 23053 ft | 409 kts | 36° |
| 2026-04-26 11:45 | 64.83512 | -19.26859 | 23054 ft | 409 kts | 36° |
| 2026-04-26 11:45 | 64.85879 | -19.23133 | 23054 ft | 409 kts | 36° |
| 2026-04-26 11:46 | 64.88240 | -19.19406 | 23053 ft | 408 kts | 36° |
| 2026-04-26 11:46 | 64.90601 | -19.15671 | 23048 ft | 408 kts | 36° |
| 2026-04-26 11:46 | 64.92960 | -19.11932 | 23039 ft | 409 kts | 36° |
| 2026-04-26 11:46 | 64.95321 | -19.08174 | 23044 ft | 410 kts | 36° |
| 2026-04-26 11:47 | 64.97689 | -19.04407 | 23043 ft | 410 kts | 36° |
| 2026-04-26 11:47 | 65.00053 | -19.00636 | 23051 ft | 410 kts | 36° |
| 2026-04-26 11:47 | 65.02420 | -18.96850 | 23053 ft | 410 kts | 36° |
| 2026-04-26 11:47 | 65.04748 | -18.93111 | 23051 ft | 410 kts | 36° |
| 2026-04-26 11:48 | 65.07112 | -18.89318 | 23012 ft | 411 kts | 35° |
| 2026-04-26 11:48 | 65.09483 | -18.85511 | 22255 ft | 412 kts | 35° |
| 2026-04-26 11:48 | 65.11857 | -18.81680 | 21421 ft | 412 kts | 35° |
| 2026-04-26 11:48 | 65.14218 | -18.77863 | 20765 ft | 409 kts | 35° |
| 2026-04-26 11:49 | 65.16554 | -18.74082 | 20187 ft | 403 kts | 36° |
| 2026-04-26 11:49 | 65.18837 | -18.70260 | 19642 ft | 398 kts | 40° |
| 2026-04-26 11:49 | 65.20773 | -18.65631 | 19127 ft | 393 kts | 52° |
| 2026-04-26 11:49 | 65.22445 | -18.60601 | 18647 ft | 390 kts | 54° |
| 2026-04-26 11:50 | 65.24100 | -18.55484 | 18130 ft | 389 kts | 54° |
| 2026-04-26 11:50 | 65.25753 | -18.50367 | 17596 ft | 389 kts | 54° |
| 2026-04-26 11:50 | 65.27414 | -18.45290 | 17080 ft | 388 kts | 53° |
| 2026-04-26 11:50 | 65.29074 | -18.40215 | 16576 ft | 387 kts | 53° |
| 2026-04-26 11:51 | 65.30728 | -18.35145 | 16076 ft | 386 kts | 53° |
| 2026-04-26 11:51 | 65.32374 | -18.30076 | 15588 ft | 385 kts | 54° |
| 2026-04-26 11:51 | 65.34012 | -18.25006 | 15128 ft | 384 kts | 54° |
| 2026-04-26 11:51 | 65.35642 | -18.19946 | 14651 ft | 383 kts | 54° |
| 2026-04-26 11:52 | 65.37264 | -18.14868 | 14153 ft | 383 kts | 54° |
| 2026-04-26 11:52 | 65.38886 | -18.09799 | 13635 ft | 383 kts | 52° |
| 2026-04-26 11:52 | 65.40786 | -18.05416 | 13092 ft | 378 kts | 35° |
| 2026-04-26 11:52 | 65.43129 | -18.02720 | 12619 ft | 372 kts | 18° |
| 2026-04-26 11:53 | 65.45592 | -18.00992 | 12136 ft | 365 kts | 16° |
| 2026-04-26 11:53 | 65.48024 | -17.99353 | 11649 ft | 359 kts | 16° |
| 2026-04-26 11:53 | 65.50413 | -17.97674 | 11194 ft | 355 kts | 17° |
| 2026-04-26 11:54 | 65.54989 | -17.94327 | 10700 ft | 331 kts | 17° |
| 2026-04-26 11:54 | 65.57145 | -17.92731 | 10518 ft | 318 kts | 17° |
| 2026-04-26 11:54 | 65.59221 | -17.91185 | 10353 ft | 306 kts | 17° |
| 2026-04-26 11:54 | 65.61234 | -17.89684 | 10015 ft | 301 kts | 17° |
| 2026-04-26 11:55 | 65.63228 | -17.88194 | 9577 ft | 299 kts | 17° |
| 2026-04-26 11:55 | 65.65205 | -17.86712 | 9135 ft | 296 kts | 18° |
| 2026-04-26 11:55 | 65.67165 | -17.85237 | 8740 ft | 293 kts | 18° |
| 2026-04-26 11:55 | 65.69101 | -17.83779 | 8356 ft | 290 kts | 18° |
| 2026-04-26 11:56 | 65.71029 | -17.82440 | 7958 ft | 287 kts | 11° |
| 2026-04-26 11:56 | 65.73003 | -17.81954 | 7584 ft | 284 kts | 3° |
| 2026-04-26 11:56 | 65.74965 | -17.81747 | 7216 ft | 281 kts | 2° |
| 2026-04-26 11:56 | 65.76911 | -17.81534 | 6845 ft | 278 kts | 3° |
| 2026-04-26 11:57 | 65.78831 | -17.81301 | 6473 ft | 275 kts | 3° |
| 2026-04-26 11:57 | 65.80740 | -17.81059 | 6105 ft | 272 kts | 3° |
| 2026-04-26 11:57 | 65.82583 | -17.81172 | 5972 ft | 259 kts | 347° |
| 2026-04-26 11:57 | 65.84097 | -17.82986 | 5944 ft | 236 kts | 316° |
| 2026-04-26 11:58 | 65.84985 | -17.86084 | 5810 ft | 218 kts | 288° |
| 2026-04-26 11:58 | 65.85348 | -17.89663 | 5362 ft | 218 kts | 279° |
| 2026-04-26 11:58 | 65.85621 | -17.93355 | 4929 ft | 222 kts | 280° |
| 2026-04-26 11:58 | 65.85904 | -17.97073 | 4798 ft | 223 kts | 276° |
| 2026-04-26 11:59 | 65.85806 | -18.00805 | 4696 ft | 222 kts | 253° |
| 2026-04-26 11:59 | 65.85333 | -18.04378 | 4289 ft | 220 kts | 249° |
| 2026-04-26 11:59 | 65.84831 | -18.07869 | 3908 ft | 218 kts | 247° |
| 2026-04-26 11:59 | 65.84049 | -18.10898 | 3621 ft | 202 kts | 218° |
| 2026-04-26 12:00 | 65.82870 | -18.12204 | 3564 ft | 177 kts | 186° |
| 2026-04-26 12:00 | 65.81696 | -18.12105 | 3325 ft | 167 kts | 171° |
| 2026-04-26 12:00 | 65.80549 | -18.11699 | 2950 ft | 167 kts | 171° |
| 2026-04-26 12:00 | 65.79409 | -18.11312 | 2603 ft | 168 kts | 172° |
| 2026-04-26 12:01 | 65.78229 | -18.10928 | 2497 ft | 171 kts | 172° |
| 2026-04-26 12:01 | 65.77048 | -18.10546 | 2409 ft | 170 kts | 172° |
| 2026-04-26 12:01 | 65.75879 | -18.10169 | 2148 ft | 169 kts | 172° |
| 2026-04-26 12:01 | 65.74726 | -18.09798 | 1859 ft | 164 kts | 172° |
| 2026-04-26 12:02 | 65.73614 | -18.09440 | 1612 ft | 158 kts | 171° |
| 2026-04-26 12:02 | 65.72569 | -18.09106 | 1375 ft | 141 kts | 171° |
| 2026-04-26 12:02 | 65.71616 | -18.08799 | 1144 ft | 137 kts | 171° |
| 2026-04-26 12:02 | 65.70678 | -18.08497 | 939 ft | 136 kts | 171° |
| 2026-04-26 12:03 | 65.69745 | -18.08172 | 739 ft | 136 kts | 172° |
| 2026-04-26 12:03 | 65.68808 | -18.07840 | 526 ft | 136 kts | 171° |
| 2026-04-26 12:03 | 65.67871 | -18.07607 | 316 ft | 135 kts | 176° |
| 2026-04-26 12:03 | 65.66936 | -18.07444 | 87 ft | 134 kts | 176° |
| 2026-04-26 12:04 | 65.66041 | -18.07284 | 26 ft | 118 kts | 176° |
| 2026-04-26 12:04 | 65.65385 | -18.07152 | 27 ft | 70 kts | 175° |
| 2026-04-26 12:04 | 65.65067 | -18.07098 | 27 ft | 22 kts | 175° |
| 2026-04-26 12:04 | 65.64946 | -18.07075 | 27 ft | 3 kts | 185° |
| 2026-04-26 12:05 | 65.64924 | -18.07089 | 27 ft | 4 kts | 186° |
| 2026-04-26 12:05 | 65.64921 | -18.07053 | 27 ft | 4 kts | 38° |
| 2026-04-26 12:05 | 65.65003 | -18.07075 | 27 ft | 18 kts | 352° |
| 2026-04-26 12:05 | 65.65131 | -18.07102 | 27 ft | 19 kts | 356° |
| 2026-04-26 12:06 | 65.65268 | -18.07124 | 27 ft | 20 kts | 355° |
| 2026-04-26 12:06 | 65.65411 | -18.07156 | 27 ft | 21 kts | 354° |
| 2026-04-26 12:06 | 65.65480 | -18.07229 | 27 ft | 10 kts | 280° |
| 2026-04-26 12:06 | 65.65478 | -18.07348 | 26 ft | 7 kts | 266° |
| 2026-04-26 12:07 | 65.65443 | -18.07413 | 28 ft | 4 kts | 172° |
| 2026-04-26 12:07 | 65.65418 | -18.07405 | 26 ft | 4 kts | 179° |
| 2026-04-26 12:07 | 65.65393 | -18.07426 | 26 ft | 3 kts | 218° |
| 2026-04-26 12:07 | 65.65387 | -18.07480 | 26 ft | 4 kts | 296° |
| 2026-04-26 12:08 | 65.65399 | -18.07492 | 26 ft | 2 kts | 353° |
| 2026-04-26 12:08 | 65.65411 | -18.07493 | 26 ft | 0 kts | 358° |
| 2026-04-26 12:08 | 65.65418 | -18.07494 | 26 ft | 2 kts | 358° |
| 2026-04-26 12:08 | 65.65423 | -18.07494 | 26 ft | 2 kts | 356° |
| 2026-04-26 12:09 | 65.65449 | -18.07499 | 31 ft | 5 kts | 355° |
| 2026-04-26 12:09 | 65.65483 | -18.07512 | 29 ft | 0 kts | 344° |
| 2026-04-26 12:09 | 65.65490 | -18.07515 | 30 ft | 2 kts | 354° |
| 2026-04-26 12:09 | 65.65498 | -18.07504 | 29 ft | 2 kts | 44° |
| 2026-04-26 12:10 | 65.65499 | -18.07494 | 30 ft | 1 kts | 78° |
| 2026-04-26 12:10 | 65.65499 | -18.07480 | 29 ft | 0 kts | 84° |